Time;durP1;ratioP1;P1;durP2;ratioP2;P2;SDS_P1;SDS_P2;PMS_P1;PMS_P2;Temp;Humidity;BMP_temperature;BMP_pressure;BME280_temperature;BME280_humidity;BME280_pressure;Samples;Min_cycle;Max_cycle;Signal;HPM_P1;HPM_P2
2024/04/14 00:02:21;;;;;;;8.48;7.97;;;;;;;32.32;84.13;101007.94;5400462;26;63803;-31
2024/04/14 00:04:53;;;;;;;8.53;8.00;;;;;;;32.33;83.52;101015.00;5390595;26;68575;-32
2024/04/14 00:07:24;;;;;;;8.07;7.57;;;;;;;32.33;84.36;101020.44;5380887;26;64685;-30
2024/04/14 00:09:54;;;;;;;11.35;7.95;;;;;;;32.35;83.51;101022.94;5384707;26;68588;-30
2024/04/14 00:12:26;;;;;;;8.45;7.78;;;;;;;32.36;83.76;101019.97;5373701;26;65059;-30
2024/04/14 00:14:57;;;;;;;9.30;7.60;;;;;;;32.36;84.51;101030.00;5382597;26;68958;-31
2024/04/14 00:17:28;;;;;;;7.70;7.28;;;;;;;32.32;84.35;101035.06;5383856;26;64945;-30
2024/04/14 00:20:00;;;;;;;8.70;7.90;;;;;;;32.31;84.33;101038.81;5383392;26;69069;-31
2024/04/14 00:22:31;;;;;;;9.75;8.70;;;;;;;32.36;83.11;101035.44;5382588;26;64283;-30
2024/04/14 00:25:02;;;;;;;8.27;7.63;;;;;;;32.34;84.74;101038.38;5397226;26;68969;-30
2024/04/14 00:27:33;;;;;;;8.10;7.60;;;;;;;32.34;83.96;101043.81;5357899;26;64073;-30
2024/04/14 00:30:07;;;;;;;8.65;7.95;;;;;;;32.35;83.75;101045.47;5384357;26;68456;-30
2024/04/14 00:32:39;;;;;;;8.10;7.60;;;;;;;32.21;83.35;101027.69;5382747;26;65196;-30
2024/04/14 00:35:10;;;;;;;9.63;8.65;;;;;;;32.38;83.85;101055.06;5380540;26;69158;-30
2024/04/14 00:37:40;;;;;;;8.57;8.15;;;;;;;32.36;84.13;101055.28;5382310;26;63996;-30
2024/04/14 00:40:11;;;;;;;8.98;8.27;;;;;;;32.38;84.50;101066.75;5383361;26;68539;-30
2024/04/14 00:42:42;;;;;;;8.50;8.00;;;;;;;32.35;84.48;101067.19;5368647;26;64168;-30
2024/04/14 00:45:13;;;;;;;8.25;7.75;;;;;;;32.45;83.64;101072.91;5361300;26;68584;-31
2024/04/14 00:47:44;;;;;;;8.85;8.00;;;;;;;32.50;83.04;101080.41;5380927;26;64126;-31
2024/04/14 00:50:15;;;;;;;9.60;8.65;;;;;;;32.46;82.95;101085.47;5381509;26;70181;-30
2024/04/14 00:52:47;;;;;;;10.57;9.77;;;;;;;32.49;83.78;101090.47;5382976;26;63886;-33
2024/04/14 00:55:19;;;;;;;19.98;13.13;;;;;;;32.54;83.97;101088.94;5366423;26;69264;-31
2024/04/14 00:57:51;;;;;;;13.85;12.65;;;;;;;32.55;83.88;101094.16;5382844;26;64687;-31
2024/04/14 01:00:23;;;;;;;14.25;13.00;;;;;;;32.55;84.13;101098.75;5382412;26;67672;-31
2024/04/14 01:02:55;;;;;;;17.13;12.13;;;;;;;32.57;83.78;101102.91;5380971;26;65248;-31
2024/04/14 01:05:26;;;;;;;13.35;11.95;;;;;;;32.56;83.96;101101.22;5375076;26;68264;-30
2024/04/14 01:07:57;;;;;;;13.63;12.23;;;;;;;32.61;84.91;101097.84;5372411;26;64750;-31
2024/04/14 01:10:29;;;;;;;12.90;11.73;;;;;;;32.62;83.87;101099.50;5379477;26;68352;-30
2024/04/14 01:13:00;;;;;;;12.93;11.68;;;;;;;32.63;84.24;101109.31;5356327;26;64039;-30
2024/04/14 01:15:31;;;;;;;12.55;11.65;;;;;;;32.65;84.45;101107.19;5386255;26;68240;-31
2024/04/14 01:18:02;;;;;;;12.27;10.97;;;;;;;32.65;84.22;101099.03;5382377;26;64059;-31
2024/04/14 01:20:35;;;;;;;12.63;11.73;;;;;;;32.68;84.81;101098.56;5383149;26;68031;-30
2024/04/14 01:23:06;;;;;;;12.13;10.90;;;;;;;32.68;84.25;101104.88;5382940;26;64980;-31
2024/04/14 01:25:36;;;;;;;11.82;10.95;;;;;;;32.71;84.61;101106.31;5382374;26;69729;-30
2024/04/14 01:28:07;;;;;;;12.70;11.48;;;;;;;32.70;84.06;101101.91;5406916;26;65606;-30
2024/04/14 01:30:38;;;;;;;12.00;10.98;;;;;;;32.70;84.73;101101.91;5384570;26;68677;-30
2024/04/14 01:33:09;;;;;;;12.23;11.18;;;;;;;32.76;83.56;101114.56;5383204;26;66572;-31
2024/04/14 01:35:40;;;;;;;11.40;10.50;;;;;;;32.77;83.86;101112.72;5383859;26;68499;-30
2024/04/14 01:38:11;;;;;;;11.23;10.50;;;;;;;32.78;84.08;101115.19;5383467;26;65189;-30
2024/04/14 01:40:52;;;;;;;;;;;;;;;32.72;84.60;101118.81;5379385;26;69712;-30
2024/04/14 01:43:23;;;;;;;10.98;10.18;;;;;;;32.84;83.83;101119.69;5382442;26;64936;-31
2024/04/14 01:45:54;;;;;;;11.35;10.43;;;;;;;32.82;84.31;101116.41;5381603;26;68750;-32
2024/04/14 01:48:27;;;;;;;;;;;;;;;32.76;84.85;101111.03;5381554;26;65450;-32
2024/04/14 01:50:58;;;;;;;11.37;10.23;;;;;;;32.89;83.67;101117.13;5384032;26;67874;-31
2024/04/14 01:53:28;;;;;;;11.50;10.43;;;;;;;32.92;83.28;101116.66;5383016;26;65193;-30
2024/04/14 01:56:00;;;;;;;10.57;9.77;;;;;;;32.71;83.39;101082.69;5383877;26;68753;-31
2024/04/14 01:58:30;;;;;;;10.88;10.18;;;;;;;32.94;83.62;101109.13;5382177;26;64753;-31
2024/04/14 02:01:01;;;;;;;10.95;10.07;;;;;;;32.98;82.76;101108.66;5383823;26;68823;-31
2024/04/14 02:03:35;;;;;;;11.37;10.43;;;;;;;33.03;82.46;101111.56;5384127;26;65908;-30
2024/04/14 02:06:06;;;;;;;11.48;10.55;;;;;;;33.06;82.96;101111.09;5381820;26;67890;-31
2024/04/14 02:08:36;;;;;;;11.15;10.43;;;;;;;33.07;83.56;101102.72;5383534;26;65125;-31
2024/04/14 02:11:07;;;;;;;10.95;10.35;;;;;;;33.07;83.34;101091.00;5376293;26;67910;-30
2024/04/14 02:13:38;;;;;;;10.73;9.80;;;;;;;33.10;83.58;101096.81;5381887;26;65031;-33
2024/04/14 02:16:10;;;;;;;11.35;10.65;;;;;;;33.12;83.43;101096.59;5385682;26;69162;-31
2024/04/14 02:18:41;;;;;;;11.05;10.35;;;;;;;33.15;82.10;101094.25;5385670;26;64790;-32
2024/04/14 02:21:11;;;;;;;11.13;10.32;;;;;;;33.17;83.33;101096.72;5381917;26;68658;-31
2024/04/14 02:23:43;;;;;;;11.23;10.38;;;;;;;33.20;82.13;101101.69;5383798;26;64898;-34
2024/04/14 02:26:13;;;;;;;11.20;10.50;;;;;;;33.22;82.14;101099.59;5385336;26;68937;-31
2024/04/14 02:28:44;;;;;;;10.93;10.32;;;;;;;33.24;82.13;101107.50;5382676;26;65690;-34
2024/04/14 02:31:15;;;;;;;10.45;9.85;;;;;;;33.25;82.23;101099.13;5385378;26;67933;-31
2024/04/14 02:33:47;;;;;;;10.95;10.13;;;;;;;33.26;82.94;101100.75;5386030;26;65320;-30
2024/04/14 02:36:17;;;;;;;11.27;10.17;;;;;;;33.30;81.75;101101.97;5384153;26;69553;-30
2024/04/14 02:38:49;;;;;;;10.87;10.10;;;;;;;33.34;82.09;101102.34;5385854;26;66566;-34
2024/04/14 02:41:20;;;;;;;11.40;10.70;;;;;;;33.37;82.55;101102.69;5384425;26;67880;-31
2024/04/14 02:43:50;;;;;;;10.90;9.93;;;;;;;33.40;81.54;101098.69;5384952;26;65334;-31
2024/04/14 02:46:21;;;;;;;10.85;10.13;;;;;;;33.43;81.87;101091.94;5394516;26;68634;-31
2024/04/14 02:48:53;;;;;;;10.73;9.93;;;;;;;33.47;82.45;101087.72;5393772;26;64235;-31
2024/04/14 02:51:23;;;;;;;11.25;10.25;;;;;;;33.48;81.33;101081.19;5385271;26;69090;-31
2024/04/14 02:53:55;;;;;;;10.57;9.77;;;;;;;33.49;82.49;101082.84;5384003;26;64071;-31
2024/04/14 02:56:26;;;;;;;10.80;10.00;;;;;;;33.49;81.52;101078.25;5380341;26;70000;-31
2024/04/14 02:58:56;;;;;;;10.37;9.77;;;;;;;33.51;82.05;101072.56;5383917;26;65983;-31
2024/04/14 03:01:28;;;;;;;11.43;10.63;;;;;;;33.56;82.14;101081.72;5384893;26;67974;-30
2024/04/14 03:03:59;;;;;;;10.45;9.70;;;;;;;33.59;81.87;101072.25;5360276;26;64611;-31
2024/04/14 03:06:30;;;;;;;10.75;9.88;;;;;;;33.62;81.72;101081.84;5381711;26;69384;-31
2024/04/14 03:09:01;;;;;;;10.40;9.60;;;;;;;33.65;81.58;101071.31;5384715;26;64930;-30
2024/04/14 03:11:37;;;;;;;11.10;10.13;;;;;;;33.69;80.86;101071.69;5382356;26;69681;-32
2024/04/14 03:14:08;;;;;;;10.57;9.77;;;;;;;33.71;80.80;101075.84;5385496;26;65005;-33
2024/04/14 03:16:41;;;;;;;10.82;10.20;;;;;;;33.73;81.17;101072.88;5384775;26;68212;-32
2024/04/14 03:19:15;;;;;;;10.27;9.65;;;;;;;33.74;81.68;101069.94;5385219;26;63990;-31
2024/04/14 03:21:48;;;;;;;10.80;9.90;;;;;;;33.62;81.49;101051.94;5393660;26;66881;-32
2024/04/14 03:24:20;;;;;;;11.40;10.50;;;;;;;33.81;81.10;101073.34;5381373;26;64960;-31
2024/04/14 03:26:58;;;;;;;10.68;10.02;;;;;;;33.83;80.66;101075.03;5384910;26;69576;-33
2024/04/14 03:29:29;;;;;;;10.65;10.07;;;;;;;33.88;80.81;101080.56;5383398;26;64709;-31
2024/04/14 03:32:00;;;;;;;11.20;10.40;;;;;;;33.91;81.08;101080.13;5382628;26;69222;-32
2024/04/14 03:34:30;;;;;;;10.25;9.65;;;;;;;33.93;80.53;101077.97;5354055;26;65441;-31
2024/04/14 03:37:02;;;;;;;11.32;10.60;;;;;;;33.95;80.41;101071.22;5370168;26;68370;-33
2024/04/14 03:39:33;;;;;;;11.27;10.48;;;;;;;33.99;80.85;101060.69;5384480;26;65127;-32
2024/04/14 03:42:05;;;;;;;11.13;10.35;;;;;;;34.01;80.88;101056.66;5380894;26;69097;-31
2024/04/14 03:44:40;;;;;;;11.68;10.88;;;;;;;33.97;80.97;101046.50;5380657;26;65372;-31
2024/04/14 03:47:11;;;;;;;11.10;10.35;;;;;;;34.06;80.48;101053.25;5384085;26;67890;-31
2024/04/14 03:49:45;;;;;;;11.38;10.57;;;;;;;34.09;80.75;101055.50;5384018;26;63998;-31
2024/04/14 03:52:16;;;;;;;10.77;10.07;;;;;;;34.08;80.77;101042.97;5381548;26;69151;-31
2024/04/14 03:54:47;;;;;;;12.57;10.30;;;;;;;34.14;80.14;101039.28;5386402;26;65044;-33
2024/04/14 03:57:18;;;;;;;10.50;9.77;;;;;;;34.17;80.24;101044.25;5383743;26;69116;-31
2024/04/14 03:59:52;;;;;;;11.40;10.40;;;;;;;34.21;80.00;101042.72;5384184;26;65161;-31
2024/04/14 04:02:24;;;;;;;11.40;10.60;;;;;;;34.24;80.09;101034.06;5383314;26;68986;-31
2024/04/14 04:04:57;;;;;;;11.30;10.48;;;;;;;34.22;80.51;101022.59;5381269;26;64804;-32
2024/04/14 04:07:28;;;;;;;11.43;10.50;;;;;;;34.28;80.38;101014.53;5384088;26;68430;-32
2024/04/14 04:09:58;;;;;;;9.73;9.13;;;;;;;34.31;79.88;101024.94;5360882;26;63729;-31
2024/04/14 04:12:30;;;;;;;10.15;9.55;;;;;;;34.33;79.70;101011.91;5379953;26;68599;-30
2024/04/14 04:15:00;;;;;;;10.60;9.90;;;;;;;34.35;80.41;101012.50;5384408;26;65262;-31
2024/04/14 04:17:32;;;;;;;10.52;9.85;;;;;;;34.39;80.24;101010.94;5384016;26;68005;-33
2024/04/14 04:20:04;;;;;;;10.93;10.23;;;;;;;34.42;80.35;101005.84;5381298;26;65480;-31
2024/04/14 04:22:35;;;;;;;11.35;10.65;;;;;;;34.44;80.03;101000.16;5383211;26;67599;-32
2024/04/14 04:25:05;;;;;;;11.07;10.27;;;;;;;34.46;80.16;100990.69;5384249;26;65799;-32
2024/04/14 04:27:37;;;;;;;10.60;9.90;;;;;;;34.48;79.57;100996.69;5379428;26;68594;-32
2024/04/14 04:30:09;;;;;;;10.83;9.93;;;;;;;34.52;79.90;100991.63;5388493;26;64774;-32
2024/04/14 04:32:40;;;;;;;11.30;10.60;;;;;;;34.55;79.47;100993.00;5408596;26;68830;-31
2024/04/14 04:35:17;;;;;;;11.23;10.32;;;;;;;34.57;79.44;100989.00;5382921;26;63977;-31
2024/04/14 04:37:52;;;;;;;11.33;10.60;;;;;;;34.62;79.89;100988.28;5352895;26;68722;-32
2024/04/14 04:40:27;;;;;;;11.35;10.65;;;;;;;34.59;79.94;100973.25;5380827;26;64678;-31
2024/04/14 04:42:57;;;;;;;10.93;10.32;;;;;;;34.64;80.09;100970.63;5383302;26;67240;-31
2024/04/14 04:45:28;;;;;;;10.63;9.95;;;;;;;34.67;79.71;100958.41;5384077;26;64516;-32
2024/04/14 04:47:59;;;;;;;11.13;10.43;;;;;;;34.72;79.78;100961.22;5383767;26;67433;-33
2024/04/14 04:50:31;;;;;;;11.30;10.63;;;;;;;34.75;79.16;100949.00;5385572;26;65161;-32
2024/04/14 04:53:05;;;;;;;11.80;11.00;;;;;;;34.78;78.59;100943.06;5384788;26;69477;-31
2024/04/14 04:55:37;;;;;;;11.80;11.00;;;;;;;34.79;79.30;100939.25;5385001;26;65119;-32
2024/04/14 04:58:08;;;;;;;10.68;9.88;;;;;;;34.81;79.54;100940.66;5386955;26;68631;-31
2024/04/14 05:00:39;;;;;;;12.48;11.50;;;;;;;34.84;78.89;100942.09;5382948;26;64272;-31
2024/04/14 05:03:13;;;;;;;11.32;10.63;;;;;;;34.87;79.04;100936.97;5394741;26;69441;-31
2024/04/14 05:05:55;;;;;;;12.38;11.77;;;;;;;34.74;79.40;100909.19;5386825;26;64761;-34
2024/04/14 05:08:28;;;;;;;12.38;11.55;;;;;;;34.91;79.46;100931.84;5385430;26;68486;-31
2024/04/14 05:11:00;;;;;;;11.50;10.90;;;;;;;34.90;78.84;100927.47;5385265;26;64217;-31
2024/04/14 05:13:33;;;;;;;11.70;10.88;;;;;;;34.96;79.37;100929.19;5384171;26;69083;-30
2024/04/14 05:16:05;;;;;;;12.18;11.52;;;;;;;34.99;78.67;100917.78;5385562;26;63671;-34
2024/04/14 05:18:38;;;;;;;12.52;11.63;;;;;;;35.00;79.11;100914.00;5384425;26;68758;-32
2024/04/14 05:21:10;;;;;;;12.48;11.60;;;;;;;35.02;78.57;100898.25;5382536;26;65750;-34
2024/04/14 05:23:40;;;;;;;12.70;11.90;;;;;;;34.87;78.85;100870.72;5385315;26;68008;-32
2024/04/14 05:26:12;;;;;;;11.20;10.40;;;;;;;35.07;78.74;100895.59;5383880;26;64473;-34
2024/04/14 05:28:42;;;;;;;12.73;11.85;;;;;;;35.09;78.76;100890.72;5370212;26;67966;-32
2024/04/14 05:31:13;;;;;;;12.13;11.43;;;;;;;35.12;78.35;100886.69;5384740;26;63380;-33
2024/04/14 05:33:44;;;;;;;12.50;11.70;;;;;;;35.17;78.14;100881.31;5385148;26;68633;-31
2024/04/14 05:36:16;;;;;;;12.95;12.07;;;;;;;35.19;78.04;100873.72;5389373;26;64707;-32
2024/04/14 05:38:50;;;;;;;12.38;11.57;;;;;;;35.20;78.07;100869.09;5406534;26;69003;-31
2024/04/14 05:41:20;;;;;;;12.68;11.68;;;;;;;35.26;78.09;100873.53;5369650;26;64217;-31
2024/04/14 05:43:51;;;;;;;12.65;11.75;;;;;;;35.27;78.10;100870.56;5386269;26;68574;-31
2024/04/14 05:46:22;;;;;;;12.43;11.50;;;;;;;35.29;78.34;100862.13;5386423;26;64997;-31
2024/04/14 05:48:53;;;;;;;12.60;11.75;;;;;;;35.31;78.42;100865.44;5383140;26;69688;-31
2024/04/14 05:51:45;;;;;;;14.48;13.57;;;;;;;35.35;78.10;100861.09;5369594;26;65599;-31
2024/04/14 05:54:16;;;;;;;13.25;12.32;;;;;;;35.38;77.78;100852.41;5382897;26;69243;-34
2024/04/14 05:56:54;;;;;;;12.55;11.77;;;;;;;35.44;77.99;100848.72;5386052;26;64148;-32
2024/04/14 05:59:26;;;;;;;12.95;11.93;;;;;;;35.40;77.69;100825.72;5385508;26;68796;-32
2024/04/14 06:02:00;;;;;;;12.75;11.95;;;;;;;35.47;77.11;100820.91;5385959;26;64918;-32
2024/04/14 06:04:31;;;;;;;13.38;12.20;;;;;;;35.50;77.28;100823.16;5385598;26;68754;-30
2024/04/14 06:07:02;;;;;;;13.38;12.55;;;;;;;35.52;77.68;100829.19;5381071;26;65242;-31
2024/04/14 06:09:35;;;;;;;12.85;12.05;;;;;;;35.58;77.55;100817.28;5386370;26;69105;-33
2024/04/14 06:12:07;;;;;;;13.65;12.52;;;;;;;35.64;77.53;100814.63;5402096;26;65149;-32
2024/04/14 06:14:38;;;;;;;13.35;12.38;;;;;;;35.65;77.16;100811.63;5383029;26;67707;-33
2024/04/14 06:17:09;;;;;;;13.00;12.37;;;;;;;35.69;77.30;100801.00;5384118;26;64943;-32
2024/04/14 06:19:39;;;;;;;12.95;12.25;;;;;;;35.73;77.20;100808.44;5385874;26;69032;-32
2024/04/14 06:22:10;;;;;;;13.68;12.68;;;;;;;35.78;76.98;100799.50;5382886;26;65054;-31
2024/04/14 06:24:43;;;;;;;13.68;12.48;;;;;;;35.47;76.75;100739.09;5384179;26;67894;-32
2024/04/14 06:27:14;;;;;;;13.25;12.15;;;;;;;35.79;76.79;100768.38;5385358;26;65471;-31
2024/04/14 06:29:45;;;;;;;13.35;12.38;;;;;;;35.89;76.70;100790.34;5384407;26;69411;-31
2024/04/14 06:32:16;;;;;;;13.68;12.48;;;;;;;35.95;76.55;100789.28;5385447;26;65148;-32
2024/04/14 06:34:48;;;;;;;13.20;12.52;;;;;;;35.98;77.17;100788.78;5361921;26;69633;-31
2024/04/14 06:37:19;;;;;;;12.70;12.07;;;;;;;36.01;76.85;100782.81;5382056;26;65002;-31
2024/04/14 06:39:50;;;;;;;13.70;12.80;;;;;;;36.08;76.74;100776.34;5385327;26;68826;-31
2024/04/14 06:42:21;;;;;;;12.70;11.95;;;;;;;36.09;76.47;100778.81;5382204;26;64033;-34
2024/04/14 06:44:52;;;;;;;13.88;12.85;;;;;;;36.11;76.59;100776.66;5393068;26;67811;-32
2024/04/14 06:47:22;;;;;;;13.77;12.88;;;;;;;36.17;76.31;100772.06;5399323;26;64006;-31
2024/04/14 06:49:53;;;;;;;13.02;12.07;;;;;;;36.21;76.34;100775.91;5382401;26;68936;-31
2024/04/14 06:52:24;;;;;;;;;;;;;;;36.18;75.67;100770.97;5385296;26;64199;-31
2024/04/14 06:54:55;;;;;;;13.60;12.60;;;;;;;36.30;76.26;100755.22;5384048;26;67812;-36
2024/04/14 06:57:28;;;;;;;12.93;12.20;;;;;;;36.33;76.01;100748.41;5359451;26;65061;-31
2024/04/14 07:00:00;;;;;;;13.30;12.47;;;;;;;36.36;75.80;100743.28;5384218;26;68341;-31
2024/04/14 07:02:31;;;;;;;12.73;12.05;;;;;;;36.41;76.41;100748.78;5384977;26;65631;-32
2024/04/14 07:05:02;;;;;;;13.07;12.27;;;;;;;36.46;76.03;100743.34;5383918;26;69205;-31
2024/04/14 07:07:33;;;;;;;12.73;12.02;;;;;;;36.49;75.44;100744.72;5385641;26;65399;-33
2024/04/14 07:10:06;;;;;;;13.02;12.10;;;;;;;36.55;75.65;100742.88;5380517;26;69105;-32
2024/04/14 07:12:36;;;;;;;;;;;;;;;36.47;74.30;100736.81;5385311;26;65596;-33
2024/04/14 07:15:07;;;;;;;13.75;12.85;;;;;;;36.65;75.35;100732.03;5384189;26;69371;-34
2024/04/14 07:17:38;;;;;;;13.73;12.50;;;;;;;36.64;75.10;100725.75;5383268;26;64928;-31
2024/04/14 07:20:12;;;;;;;13.15;12.45;;;;;;;36.74;75.60;100729.63;5398738;26;68054;-32
2024/04/14 07:22:45;;;;;;;13.18;12.32;;;;;;;36.77;74.69;100723.63;5397354;26;65289;-31
2024/04/14 07:25:17;;;;;;;13.75;12.75;;;;;;;36.78;75.10;100709.72;5382106;26;67516;-31
2024/04/14 07:27:48;;;;;;;13.52;12.63;;;;;;;36.85;74.73;100726.69;5355148;26;65182;-34
2024/04/14 07:30:20;;;;;;;13.82;13.02;;;;;;;36.94;75.24;100717.97;5383991;26;68493;-32
2024/04/14 07:32:51;;;;;;;13.98;12.98;;;;;;;36.96;75.26;100715.81;5381375;26;64947;-31
2024/04/14 07:35:22;;;;;;;12.85;12.15;;;;;;;37.00;74.50;100716.91;5384619;26;68752;-31
2024/04/14 07:37:54;;;;;;;12.80;11.85;;;;;;;37.05;74.75;100703.28;5383226;26;64232;-32
2024/04/14 07:40:25;;;;;;;12.23;11.60;;;;;;;37.09;74.54;100705.25;5382828;26;69306;-32
2024/04/14 07:42:55;;;;;;;12.02;11.32;;;;;;;37.10;74.30;100706.06;5384234;26;64976;-31
2024/04/14 07:45:28;;;;;;;12.82;12.13;;;;;;;37.18;73.87;100702.00;5383649;26;68172;-34
2024/04/14 07:47:59;;;;;;;13.35;12.45;;;;;;;37.23;73.84;100710.22;5383945;26;65199;-33
2024/04/14 07:50:30;;;;;;;12.13;11.38;;;;;;;37.29;74.58;100695.47;5383931;26;68516;-33
2024/04/14 07:53:01;;;;;;;;;;;;;;;37.22;72.46;100701.19;5387484;26;64398;-33
2024/04/14 07:55:32;;;;;;;11.23;10.43;;;;;;;37.37;73.61;100691.38;5409459;26;67510;-34
2024/04/14 07:58:03;;;;;;;11.52;10.93;;;;;;;37.40;73.33;100699.06;5384511;26;65064;-32
2024/04/14 08:00:34;;;;;;;12.25;11.35;;;;;;;37.43;73.18;100693.03;5379434;26;67457;-34
2024/04/14 08:03:05;;;;;;;11.57;11.00;;;;;;;37.47;73.58;100702.34;5384608;26;66162;-36
2024/04/14 08:05:39;;;;;;;12.10;10.93;;;;;;;37.49;73.06;100697.44;5383436;26;69177;-31
2024/04/14 08:08:10;;;;;;;12.45;11.65;;;;;;;37.49;73.05;100686.50;5381210;26;65204;-33
2024/04/14 08:10:42;;;;;;;12.07;11.37;;;;;;;37.54;73.43;100692.00;5384364;26;68674;-32
2024/04/14 08:13:13;;;;;;;12.15;11.48;;;;;;;37.56;72.79;100689.81;5380541;26;64656;-33
2024/04/14 08:15:44;;;;;;;12.30;11.50;;;;;;;37.58;73.63;100684.88;5382457;26;69709;-32
2024/04/14 08:18:18;;;;;;;12.73;11.55;;;;;;;37.59;73.46;100686.53;5384581;26;64573;-32
2024/04/14 08:21:02;;;;;;;11.98;11.15;;;;;;;37.39;71.35;100650.88;5379913;26;68358;-31
2024/04/14 08:23:33;;;;;;;11.75;11.00;;;;;;;37.64;72.59;100683.81;5384727;26;64364;-35
2024/04/14 08:26:04;;;;;;;10.83;10.33;;;;;;;37.64;72.60;100681.06;5386048;26;68692;-31
2024/04/14 08:28:34;;;;;;;12.20;11.50;;;;;;;37.66;72.09;100670.66;5399459;26;65084;-32
2024/04/14 08:31:05;;;;;;;11.93;11.23;;;;;;;37.69;72.39;100681.06;5392502;26;68005;-32
2024/04/14 08:33:37;;;;;;;11.45;10.85;;;;;;;37.71;72.54;100678.88;5386726;26;66130;-33
2024/04/14 08:36:09;;;;;;;11.57;10.77;;;;;;;37.75;73.27;100668.19;5386824;26;69211;-32
2024/04/14 08:38:40;;;;;;;12.77;11.55;;;;;;;37.75;73.34;100684.63;5386839;26;63882;-31
2024/04/14 08:41:19;;;;;;;11.27;10.48;;;;;;;37.49;71.39;100649.00;5378658;26;68625;-33
2024/04/14 08:43:56;;;;;;;11.60;10.55;;;;;;;37.73;72.42;100681.34;5382451;26;64338;-32
2024/04/14 08:46:31;;;;;;;11.55;10.70;;;;;;;37.75;72.58;100685.47;5371089;26;68421;-30
2024/04/14 08:49:06;;;;;;;11.25;10.60;;;;;;;37.75;72.93;100680.00;5384456;26;64941;-32
2024/04/14 08:51:37;;;;;;;11.98;11.30;;;;;;;37.81;72.30;100683.56;5385726;26;68912;-32
2024/04/14 08:54:08;;;;;;;;;;;;;;;37.70;72.25;100679.16;5382173;26;65190;-34
2024/04/14 08:56:39;;;;;;;11.48;10.85;;;;;;;37.77;72.15;100671.50;5386355;26;68877;-33
2024/04/14 08:59:10;;;;;;;11.38;10.68;;;;;;;37.78;72.29;100676.72;5386023;26;66153;-32
2024/04/14 09:01:41;;;;;;;11.30;10.65;;;;;;;37.72;72.59;100675.06;5393042;26;67362;-34
2024/04/14 09:04:14;;;;;;;11.30;10.60;;;;;;;37.81;72.09;100677.22;5395496;26;64986;-33
2024/04/14 09:06:48;;;;;;;11.50;10.55;;;;;;;37.78;72.65;100671.22;5376842;26;68810;-32
2024/04/14 09:09:19;;;;;;;11.55;10.45;;;;;;;37.79;72.94;100675.59;5385896;26;65588;-32
2024/04/14 09:11:52;;;;;;;11.35;10.65;;;;;;;37.58;72.94;100649.31;5384159;26;69656;-31
2024/04/14 09:14:22;;;;;;;11.40;10.68;;;;;;;37.69;72.87;100659.16;5383159;26;65793;-30
2024/04/14 09:16:54;;;;;;;11.73;10.93;;;;;;;37.81;71.97;100677.22;5385838;26;68714;-33
2024/04/14 09:19:25;;;;;;;11.25;10.60;;;;;;;37.82;72.77;100673.41;5382467;26;65087;-33
2024/04/14 09:21:56;;;;;;;11.52;10.82;;;;;;;37.79;72.11;100674.78;5380315;26;69334;-35
2024/04/14 09:24:30;;;;;;;;;;;;;;;37.66;72.09;100670.66;5384480;26;65095;-33
2024/04/14 09:27:02;;;;;;;10.90;10.23;;;;;;;37.51;72.71;100640.56;5376528;26;68891;-35
2024/04/14 09:29:34;;;;;;;10.93;10.35;;;;;;;37.74;72.46;100675.59;5379707;26;64853;-32
2024/04/14 09:32:05;;;;;;;10.82;10.13;;;;;;;37.72;72.92;100677.81;5372977;26;69374;-31
2024/04/14 09:34:41;;;;;;;;;;;;;;;37.63;72.28;100671.19;5390266;26;64765;-33
2024/04/14 09:37:14;;;;;;;10.75;10.00;;;;;;;37.69;72.41;100675.59;5390149;26;68594;-31
2024/04/14 09:39:48;;;;;;;11.70;10.95;;;;;;;37.60;72.54;100669.00;5385242;26;64916;-31
2024/04/14 09:42:20;;;;;;;10.98;10.27;;;;;;;37.59;73.27;100675.59;5381682;26;69012;-32
2024/04/14 09:44:56;;;;;;;10.32;9.73;;;;;;;37.21;71.81;100622.94;5384851;26;64722;-32
2024/04/14 09:47:27;;;;;;;11.10;10.40;;;;;;;37.58;72.69;100684.06;5386111;26;68486;-31
2024/04/14 09:49:59;;;;;;;11.73;10.82;;;;;;;37.53;72.56;100671.22;5352492;26;65184;-31
2024/04/14 09:52:32;;;;;;;11.45;10.52;;;;;;;37.53;73.09;100679.41;5383541;26;69425;-31
2024/04/14 09:55:04;;;;;;;10.23;9.52;;;;;;;37.53;72.39;100680.22;5383603;26;64249;-31
2024/04/14 09:57:35;;;;;;;11.43;10.77;;;;;;;37.53;73.01;100676.69;5385637;26;68602;-31
2024/04/14 10:00:08;;;;;;;10.90;10.30;;;;;;;37.48;72.88;100680.22;5383232;26;64317;-32
2024/04/14 10:02:53;;;;;;;11.82;10.80;;;;;;;37.25;71.96;100642.38;5369816;26;67705;-32
2024/04/14 10:05:27;;;;;;;11.45;10.50;;;;;;;37.25;73.46;100658.78;5382057;26;65159;-32
2024/04/14 10:07:58;;;;;;;10.52;9.77;;;;;;;37.41;73.22;100676.88;5378475;26;67888;-33
2024/04/14 10:10:29;;;;;;;11.07;10.45;;;;;;;37.40;73.23;100688.94;5399885;26;65053;-32
2024/04/14 10:12:59;;;;;;;10.95;10.30;;;;;;;37.34;73.54;100690.81;5375394;26;68604;-31
2024/04/14 10:15:32;;;;;;;10.48;9.98;;;;;;;37.30;73.08;100689.69;5381583;26;64994;-30
2024/04/14 10:18:10;;;;;;;10.55;9.93;;;;;;;37.26;72.61;100694.09;5383957;26;67570;-32
2024/04/14 10:20:44;;;;;;;11.02;10.43;;;;;;;37.29;73.01;100696.28;5382102;26;64757;-32
2024/04/14 10:23:21;;;;;;;10.85;10.05;;;;;;;37.27;73.34;100695.72;5384469;26;69030;-31
2024/04/14 10:25:52;;;;;;;11.02;10.38;;;;;;;37.23;73.21;100710.22;5385372;26;65058;-31
2024/04/14 10:28:25;;;;;;;11.23;10.15;;;;;;;37.18;73.42;100697.34;5381027;26;68839;-32
2024/04/14 10:31:01;;;;;;;10.57;9.60;;;;;;;37.19;73.22;100714.56;5412713;26;64126;-32
2024/04/14 10:33:32;;;;;;;11.38;10.75;;;;;;;37.19;73.62;100709.09;5372716;26;68843;-33
2024/04/14 10:36:05;;;;;;;11.02;10.23;;;;;;;36.75;73.74;100655.59;5384471;26;63596;-32
2024/04/14 10:38:39;;;;;;;11.00;10.40;;;;;;;37.11;73.31;100716.75;5384828;26;68841;-32
2024/04/14 10:41:17;;;;;;;11.50;10.80;;;;;;;37.05;73.03;100716.97;5381890;26;65044;-31
2024/04/14 10:43:47;;;;;;;11.27;10.68;;;;;;;36.94;73.08;100707.03;5393776;26;69002;-31
2024/04/14 10:46:18;;;;;;;12.53;11.23;;;;;;;37.00;73.38;100727.84;5383752;26;65186;-32
2024/04/14 10:48:49;;;;;;;11.05;10.45;;;;;;;37.00;73.18;100728.69;5382042;26;68620;-31
2024/04/14 10:51:20;;;;;;;10.45;9.93;;;;;;;36.90;73.74;100734.09;5367008;26;63881;-35
2024/04/14 10:53:53;;;;;;;11.73;11.02;;;;;;;36.87;73.81;100731.91;5383847;26;68835;-38
2024/04/14 10:56:24;;;;;;;10.63;10.05;;;;;;;36.87;74.36;100745.56;5383440;26;64695;-32
2024/04/14 10:58:56;;;;;;;11.55;10.75;;;;;;;36.82;73.83;100742.78;5385090;26;68688;-31
2024/04/14 11:01:28;;;;;;;11.63;10.82;;;;;;;36.53;74.45;100706.78;5361103;26;65100;-33
2024/04/14 11:03:59;;;;;;;11.30;10.43;;;;;;;36.74;74.29;100735.09;5382831;26;68563;-35
2024/04/14 11:06:30;;;;;;;11.43;10.73;;;;;;;36.71;73.75;100752.84;5385300;26;65356;-32
2024/04/14 11:09:04;;;;;;;11.05;10.43;;;;;;;36.68;74.22;100765.13;5378169;26;67649;-31
2024/04/14 11:11:35;;;;;;;11.35;10.65;;;;;;;36.66;73.76;100758.25;5384803;26;64936;-31
2024/04/14 11:14:06;;;;;;;11.60;10.90;;;;;;;36.60;73.84;100753.84;5385121;26;68403;-34
2024/04/14 11:16:38;;;;;;;11.55;10.95;;;;;;;36.33;73.87;100719.22;5384961;26;64245;-31
2024/04/14 11:19:09;;;;;;;12.43;11.63;;;;;;;36.50;74.19;100756.47;5400112;26;68488;-31
2024/04/14 11:21:41;;;;;;;11.32;10.52;;;;;;;36.51;74.10;100758.97;5363281;26;65372;-30
2024/04/14 11:24:12;;;;;;;11.80;11.18;;;;;;;36.47;74.59;100764.13;5382420;26;69095;-31
2024/04/14 11:26:43;;;;;;;12.40;11.60;;;;;;;36.39;74.95;100756.41;5382969;26;64978;-33
2024/04/14 11:29:16;;;;;;;11.85;11.15;;;;;;;36.31;74.59;100745.97;5383843;26;69247;-32
2024/04/14 11:31:47;;;;;;;11.77;10.77;;;;;;;36.37;75.01;100764.03;5368016;26;64950;-32
2024/04/14 11:34:18;;;;;;;11.67;10.90;;;;;;;36.34;74.19;100767.28;5384313;26;68530;-32
2024/04/14 11:36:52;;;;;;;;;;;;;;;36.21;75.45;100763.06;5382360;26;64849;-29